createdAt,value
2022-11-18T00:00:06.195Z,3.70
2022-11-18T00:02:34.481Z,3.67
2022-11-18T00:05:02.290Z,4.10
2022-11-18T00:07:31.649Z,4.10
2022-11-18T00:09:59.548Z,4.37
2022-11-18T00:12:44.191Z,4.50
2022-11-18T00:15:12.096Z,4.00
2022-11-18T00:17:40.110Z,4.30
2022-11-18T00:20:08.776Z,4.37
2022-11-18T00:22:38.235Z,4.17
2022-11-18T00:25:07.280Z,4.10
2022-11-18T00:27:35.155Z,4.70
2022-11-18T00:30:02.983Z,4.60
2022-11-18T00:32:31.036Z,4.50
2022-11-18T00:34:59.250Z,4.93
2022-11-18T00:37:27.180Z,5.10
2022-11-18T00:39:56.975Z,4.90
2022-11-18T00:42:42.208Z,4.77
2022-11-18T00:45:11.240Z,4.73
2022-11-18T00:47:39.167Z,5.03
2022-11-18T00:50:07.906Z,5.50
2022-11-18T00:52:35.847Z,5.40
2022-11-18T00:55:06.055Z,5.00
2022-11-18T00:57:33.932Z,5.10
2022-11-18T01:00:01.732Z,4.77
2022-11-18T01:02:30.206Z,5.40
2022-11-18T01:04:58.068Z,5.13
2022-11-18T01:07:26.451Z,5.33
2022-11-18T01:09:54.415Z,6.00
2022-11-18T01:12:41.752Z,5.43
2022-11-18T01:15:10.245Z,5.90
2022-11-18T01:17:38.510Z,5.83
2022-11-18T01:20:07.381Z,5.93
2022-11-18T01:22:35.234Z,5.73
2022-11-18T01:25:03.128Z,5.80
2022-11-18T01:27:32.558Z,6.73
2022-11-18T01:30:00.456Z,7.43
2022-11-18T01:32:31.697Z,6.63
2022-11-18T01:34:59.518Z,7.20
2022-11-18T01:37:27.732Z,7.73
2022-11-18T01:39:55.594Z,7.90
2022-11-18T01:42:23.882Z,7.57
2022-11-18T01:45:02.580Z,7.73
2022-11-18T01:47:32.890Z,7.43
2022-11-18T01:50:00.700Z,8.77
2022-11-18T01:52:28.350Z,7.47
2022-11-18T01:54:59.213Z,7.77
2022-11-18T01:57:27.599Z,7.03
2022-11-18T01:59:58.223Z,7.13
2022-11-18T02:02:26.075Z,6.80
2022-11-18T02:04:54.138Z,7.10
2022-11-18T02:07:22.123Z,6.57
2022-11-18T02:09:50.493Z,7.10
2022-11-18T02:12:18.344Z,6.20
2022-11-18T02:14:47.051Z,7.30
2022-11-18T02:17:20.856Z,6.70
2022-11-18T02:20:13.861Z,6.90
2022-11-18T02:23:10.343Z,6.63
2022-11-18T02:25:43.218Z,6.73
2022-11-18T02:28:27.178Z,6.70
2022-11-18T02:30:59.522Z,6.50
2022-11-18T02:33:29.525Z,6.27
2022-11-18T02:35:58.633Z,5.80
2022-11-18T02:38:28.723Z,7.80
2022-11-18T02:40:58.334Z,6.30
2022-11-18T02:43:27.591Z,6.60
2022-11-18T02:45:57.889Z,5.10
2022-11-18T02:48:26.163Z,6.30
2022-11-18T02:50:54.541Z,5.70
2022-11-18T02:53:23.758Z,6.27
2022-11-18T02:55:52.168Z,5.60
2022-11-18T02:58:21.228Z,5.80
2022-11-18T03:00:56.303Z,6.30
2022-11-18T03:03:28.746Z,5.80
2022-11-18T03:06:03.837Z,5.60
2022-11-18T03:08:36.264Z,5.47
2022-11-18T03:11:08.461Z,5.93
2022-11-18T03:13:39.412Z,5.73
2022-11-18T03:16:10.944Z,6.00
2022-11-18T03:18:42.508Z,5.43
2022-11-18T03:21:12.714Z,4.93
2022-11-18T03:23:42.103Z,5.27
2022-11-18T03:26:12.616Z,5.20
2022-11-18T03:28:41.823Z,5.70
2022-11-18T03:31:13.314Z,6.03
2022-11-18T03:33:43.596Z,5.53
2022-11-18T03:36:12.510Z,5.43
2022-11-18T03:38:41.561Z,5.20
2022-11-18T03:41:11.448Z,5.57
2022-11-18T03:43:41.222Z,5.03
2022-11-18T03:46:12.335Z,5.40
2022-11-18T03:48:43.185Z,5.20
2022-11-18T03:51:13.307Z,5.07
2022-11-18T03:53:42.857Z,5.23
2022-11-18T03:56:17.137Z,5.67
2022-11-18T03:58:48.689Z,5.40
2022-11-18T04:01:19.715Z,5.30
2022-11-18T04:03:47.724Z,4.80
2022-11-18T04:06:18.225Z,4.87
2022-11-18T04:08:46.291Z,4.70
2022-11-18T04:11:36.698Z,5.43
2022-11-18T04:14:04.618Z,5.30
2022-11-18T04:16:39.903Z,5.30
2022-11-18T04:19:07.791Z,4.77
2022-11-18T04:21:35.521Z,5.20
2022-11-18T04:24:03.654Z,4.90
2022-11-18T04:26:32.338Z,5.00
2022-11-18T04:29:00.724Z,5.63
2022-11-18T04:31:28.706Z,4.50
2022-11-18T04:33:58.561Z,4.97
2022-11-18T04:36:26.470Z,4.90
2022-11-18T04:38:54.899Z,5.60
2022-11-18T04:41:42.670Z,5.03
2022-11-18T04:44:13.680Z,5.80
2022-11-18T04:46:42.853Z,5.27
2022-11-18T04:49:13.257Z,4.70
2022-11-18T04:51:42.320Z,5.70
2022-11-18T04:54:10.477Z,4.60
2022-11-18T04:56:41.708Z,5.10
2022-11-18T04:59:13.889Z,4.90
2022-11-18T05:01:42.251Z,4.10
2022-11-18T05:04:15.029Z,4.77
2022-11-18T05:06:43.308Z,4.43
2022-11-18T05:09:11.243Z,4.53
2022-11-18T05:11:56.768Z,5.10
2022-11-18T05:14:26.758Z,4.30
2022-11-18T05:16:55.064Z,4.30
2022-11-18T05:19:24.429Z,4.70
2022-11-18T05:21:52.770Z,4.80
2022-11-18T05:24:20.713Z,5.07
2022-11-18T05:26:48.888Z,5.20
2022-11-18T05:29:16.921Z,4.60
2022-11-18T05:31:45.392Z,4.80
2022-11-18T05:34:13.309Z,4.43
2022-11-18T05:36:42.655Z,5.00
2022-11-18T05:39:10.638Z,4.77
2022-11-18T05:41:56.583Z,5.10
2022-11-18T05:44:24.330Z,4.67
2022-11-18T05:46:52.747Z,4.50
2022-11-18T05:49:20.784Z,4.33
2022-11-18T05:51:50.228Z,4.37
2022-11-18T05:54:18.395Z,5.47
2022-11-18T05:56:46.086Z,4.63
2022-11-18T05:59:14.428Z,4.63
2022-11-18T06:01:44.025Z,4.50
2022-11-18T06:04:15.682Z,5.00
2022-11-18T06:06:43.841Z,5.00
2022-11-18T06:09:13.162Z,4.90
2022-11-18T06:11:42.773Z,4.70
2022-11-18T06:14:11.681Z,5.00
2022-11-18T06:16:41.164Z,4.97
2022-11-18T06:19:09.364Z,4.93
2022-11-18T06:21:37.738Z,4.50
2022-11-18T06:24:07.212Z,4.50
2022-11-18T06:26:36.887Z,4.80
2022-11-18T06:29:04.725Z,4.93
2022-11-18T06:31:33.100Z,4.80
2022-11-18T06:34:01.142Z,5.00
2022-11-18T06:36:29.556Z,5.13
2022-11-18T06:38:57.518Z,4.80
2022-11-18T06:41:26.098Z,4.70
2022-11-18T06:43:54.343Z,4.53
2022-11-18T06:46:39.973Z,4.90
2022-11-18T06:49:07.893Z,5.80
2022-11-18T06:51:36.033Z,4.67
2022-11-18T06:54:10.179Z,5.20
2022-11-18T06:56:38.931Z,4.87
2022-11-18T06:59:08.195Z,4.87
2022-11-18T07:01:37.059Z,5.37
2022-11-18T07:04:05.459Z,5.03
2022-11-18T07:06:34.158Z,4.80
2022-11-18T07:09:02.136Z,4.87
2022-11-18T07:11:29.988Z,4.43
2022-11-18T07:13:58.155Z,4.50
2022-11-18T07:16:27.833Z,5.30
2022-11-18T07:18:56.651Z,4.60
2022-11-18T07:21:25.310Z,4.60
2022-11-18T07:23:55.278Z,4.80
2022-11-18T07:26:23.303Z,5.50
2022-11-18T07:28:51.620Z,4.90
2022-11-18T07:31:20.587Z,5.70
2022-11-18T07:33:49.976Z,5.33
2022-11-18T07:36:19.010Z,4.90
2022-11-18T07:38:46.956Z,5.00
2022-11-18T07:41:15.858Z,5.30
2022-11-18T07:43:43.798Z,4.70
2022-11-18T07:46:16.078Z,4.90
2022-11-18T07:48:44.993Z,5.40
2022-11-18T07:51:14.956Z,4.70
2022-11-18T07:53:42.995Z,5.10
2022-11-18T07:56:11.159Z,5.30
2022-11-18T07:58:39.172Z,5.00
2022-11-18T08:01:10.991Z,5.00
2022-11-18T08:03:38.940Z,5.13
2022-11-18T08:06:08.301Z,4.87
2022-11-18T08:08:37.444Z,5.50
2022-11-18T08:11:06.702Z,5.17
2022-11-18T08:13:34.576Z,5.03
2022-11-18T08:16:03.004Z,5.13
2022-11-18T08:18:31.118Z,4.90
2022-11-18T08:21:03.395Z,5.07
2022-11-18T08:23:34.017Z,5.77
2022-11-18T08:26:06.152Z,5.60
2022-11-18T08:28:34.270Z,4.90
2022-11-18T08:31:02.712Z,4.53
2022-11-18T08:33:30.632Z,5.17
2022-11-18T08:35:58.515Z,5.20
2022-11-18T08:38:26.410Z,4.60
2022-11-18T08:40:54.247Z,5.03
2022-11-18T08:43:23.726Z,5.40
2022-11-18T08:45:51.728Z,5.43
2022-11-18T08:48:19.665Z,5.43
2022-11-18T08:50:47.529Z,5.20
2022-11-18T08:53:16.980Z,4.97
2022-11-18T08:55:44.865Z,5.67
2022-11-18T08:58:13.285Z,5.47
2022-11-18T09:00:42.610Z,5.60
2022-11-18T09:03:13.156Z,5.77
2022-11-18T09:05:41.120Z,5.13
2022-11-18T09:08:09.763Z,5.73
2022-11-18T09:10:38.269Z,4.97
2022-11-18T09:13:33.367Z,5.17
2022-11-18T09:15:55.205Z,5.33
2022-11-18T09:18:23.168Z,5.80
2022-11-18T09:20:55.867Z,5.83
2022-11-18T09:23:23.898Z,5.43
2022-11-18T09:25:58.743Z,5.63
2022-11-18T09:28:28.140Z,5.83
2022-11-18T09:30:57.739Z,5.70
2022-11-18T09:33:25.647Z,5.27
2022-11-18T09:35:53.925Z,6.00
2022-11-18T09:38:22.001Z,6.20
2022-11-18T09:40:53.981Z,5.60
2022-11-18T09:43:24.360Z,5.90
2022-11-18T09:45:55.060Z,6.30
2022-11-18T09:48:45.748Z,6.40
2022-11-18T09:51:14.537Z,6.20
2022-11-18T09:53:43.223Z,6.13
2022-11-18T09:56:14.471Z,6.37
2022-11-18T09:58:42.668Z,5.80
2022-11-18T10:01:13.414Z,7.00
2022-11-18T10:03:43.074Z,6.50
2022-11-18T10:06:23.087Z,6.30
2022-11-18T10:08:59.417Z,8.47
2022-11-18T10:11:29.112Z,16.23
2022-11-18T10:14:01.333Z,16.00
2022-11-18T10:16:33.836Z,18.07
2022-11-18T10:19:07.547Z,19.40
2022-11-18T10:21:42.423Z,20.23
2022-11-18T10:24:13.567Z,20.70
2022-11-18T10:26:42.456Z,20.57
2022-11-18T10:29:11.062Z,20.37
2022-11-18T10:31:39.568Z,19.30
2022-11-18T10:34:11.640Z,19.40
2022-11-18T10:36:39.692Z,19.73
2022-11-18T10:39:09.468Z,20.23
2022-11-18T10:41:40.565Z,20.33
2022-11-18T10:44:28.769Z,19.20
2022-11-18T10:46:56.735Z,19.83
2022-11-18T10:49:26.195Z,20.23
2022-11-18T10:52:07.560Z,18.80
2022-11-18T10:54:35.659Z,19.70
2022-11-18T10:57:06.393Z,18.93
2022-11-18T10:59:35.590Z,24.03
2022-11-18T11:02:09.658Z,21.30
2022-11-18T11:04:39.442Z,19.93
2022-11-18T11:07:16.874Z,17.87
2022-11-18T11:09:45.286Z,19.83
2022-11-18T11:12:15.156Z,21.20
2022-11-18T11:14:47.818Z,19.50
2022-11-18T11:17:17.125Z,19.27
2022-11-18T11:19:51.038Z,18.10
2022-11-18T11:22:19.045Z,18.17
2022-11-18T11:24:46.943Z,18.10
2022-11-18T11:30:19.253Z,18.30
2022-11-18T11:33:10.074Z,17.57
2022-11-18T11:35:43.954Z,17.63
2022-11-18T11:38:14.574Z,15.73
2022-11-18T11:40:43.790Z,17.30
2022-11-18T11:43:25.738Z,16.73
2022-11-18T11:46:08.332Z,17.10
2022-11-18T11:48:42.403Z,15.77
2022-11-18T11:51:16.198Z,17.17
2022-11-18T11:53:52.826Z,16.50
2022-11-18T11:56:23.210Z,16.67
2022-11-18T11:59:25.180Z,17.10
2022-11-18T12:02:00.479Z,16.60
2022-11-18T12:04:41.667Z,17.60
2022-11-18T12:07:16.086Z,18.03
2022-11-18T12:09:54.074Z,17.30
2022-11-18T12:12:45.864Z,16.80
2022-11-18T12:15:21.400Z,14.93
2022-11-18T12:17:54.110Z,15.30
2022-11-18T12:20:39.089Z,14.07
2022-11-18T12:23:18.939Z,14.67
2022-11-18T12:26:01.003Z,14.10
2022-11-18T12:28:31.263Z,14.90
2022-11-18T12:31:28.268Z,13.60
2022-11-18T12:33:56.653Z,13.60
2022-11-18T12:36:27.636Z,12.97
2022-11-18T12:38:56.989Z,13.70
2022-11-18T12:42:10.259Z,18.80
2022-11-18T12:44:39.441Z,15.13
2022-11-18T12:47:07.421Z,15.47
2022-11-18T12:50:12.660Z,14.90
2022-11-18T12:52:50.757Z,15.17
2022-11-18T12:55:26.236Z,14.40
2022-11-18T12:57:54.293Z,14.00
2022-11-18T13:00:52.480Z,14.57
2022-11-18T13:03:28.909Z,13.43
2022-11-18T13:06:01.892Z,13.67
2022-11-18T13:08:29.902Z,13.63
2022-11-18T13:11:18.784Z,12.77
2022-11-18T13:13:47.049Z,13.40
2022-11-18T13:16:38.326Z,12.53
2022-11-18T13:19:06.694Z,12.70
2022-11-18T13:21:51.998Z,13.03
2022-11-18T13:24:21.130Z,12.93
2022-11-18T13:26:55.018Z,13.97
2022-11-18T13:29:34.211Z,12.80
2022-11-18T13:32:20.185Z,16.50
2022-11-18T13:34:49.094Z,17.30
2022-11-18T13:37:19.384Z,15.87
2022-11-18T13:39:48.925Z,14.00
2022-11-18T13:42:20.476Z,15.80
2022-11-18T13:44:53.485Z,14.50
2022-11-18T13:47:33.431Z,19.10
2022-11-18T13:50:12.772Z,17.70
2022-11-18T13:52:41.748Z,18.03
2022-11-18T13:55:10.581Z,16.77
2022-11-18T13:57:40.231Z,17.17
2022-11-18T14:00:10.068Z,16.70
2022-11-18T14:02:46.193Z,15.33
2022-11-18T14:05:21.519Z,16.13
2022-11-18T14:08:06.115Z,16.30
2022-11-18T14:10:40.534Z,15.70
2022-11-18T14:13:21.632Z,15.00
2022-11-18T14:15:49.796Z,16.53
2022-11-18T14:18:21.024Z,17.63
2022-11-18T14:20:52.516Z,17.30
2022-11-18T14:23:20.808Z,17.13
2022-11-18T14:25:49.260Z,16.50
2022-11-18T14:28:23.218Z,15.50
2022-11-18T14:30:59.322Z,15.40
2022-11-18T14:33:27.632Z,15.97
2022-11-18T14:35:57.245Z,16.53
2022-11-18T14:38:43.631Z,16.40
2022-11-18T14:41:42.665Z,16.20
2022-11-18T14:44:14.401Z,16.63
2022-11-18T14:46:43.442Z,17.00
2022-11-18T14:49:13.983Z,16.70
2022-11-18T14:51:41.705Z,16.03
2022-11-18T14:54:13.463Z,16.03
2022-11-18T14:56:41.390Z,16.77
2022-11-18T14:59:11.192Z,17.27
2022-11-18T15:01:40.674Z,16.87
2022-11-18T15:04:08.756Z,16.60
2022-11-18T15:06:36.856Z,17.63
2022-11-18T15:09:04.928Z,17.30
2022-11-18T15:11:32.878Z,17.50
2022-11-18T15:14:00.886Z,16.80
2022-11-18T15:16:29.775Z,17.03
2022-11-18T15:19:00.422Z,16.33
2022-11-18T15:21:28.602Z,17.33
2022-11-18T15:23:57.023Z,17.70
2022-11-18T15:26:25.964Z,18.00
2022-11-18T15:28:55.149Z,17.60
2022-11-18T15:31:23.220Z,18.43
2022-11-18T15:33:51.200Z,17.87
2022-11-18T15:36:21.849Z,18.60
2022-11-18T15:38:50.094Z,17.50
2022-11-18T15:41:19.051Z,18.60
2022-11-18T15:43:47.115Z,19.23
2022-11-18T15:46:15.199Z,18.83
2022-11-18T15:48:43.222Z,19.60
2022-11-18T15:51:12.406Z,24.00
2022-11-18T15:53:42.069Z,22.60
2022-11-18T15:56:25.908Z,20.67
2022-11-18T15:58:56.759Z,19.93
2022-11-18T16:01:25.098Z,17.93
2022-11-18T16:03:53.039Z,17.30
2022-11-18T16:06:20.939Z,17.80
2022-11-18T16:08:54.402Z,17.90
2022-11-18T16:11:43.322Z,15.37
2022-11-18T16:14:12.113Z,15.83
2022-11-18T16:16:40.884Z,15.60
2022-11-18T16:19:09.901Z,14.70
2022-11-18T16:21:39.741Z,15.77
2022-11-18T16:24:11.545Z,14.57
2022-11-18T16:26:39.445Z,14.10
2022-11-18T16:29:07.387Z,13.67
2022-11-18T16:31:41.677Z,13.67
2022-11-18T16:34:09.887Z,13.07
2022-11-18T16:36:37.720Z,13.17
2022-11-18T16:39:08.379Z,13.63
2022-11-18T16:41:36.338Z,13.40
2022-11-18T16:44:05.178Z,11.70
2022-11-18T16:46:33.831Z,12.40
2022-11-18T16:49:02.315Z,11.50
2022-11-18T16:51:31.095Z,12.00
2022-11-18T16:53:59.993Z,11.50
2022-11-18T16:56:30.186Z,12.40
2022-11-18T16:58:59.312Z,11.53
2022-11-18T17:01:29.516Z,10.90
2022-11-18T17:03:57.993Z,11.93
2022-11-18T17:06:26.256Z,10.47
2022-11-18T17:08:54.021Z,10.50
2022-11-18T17:11:21.988Z,10.17
2022-11-18T17:13:56.324Z,11.23
2022-11-18T17:16:26.550Z,10.40
2022-11-18T17:18:57.750Z,10.20
2022-11-18T17:21:26.148Z,9.87
2022-11-18T17:23:54.154Z,10.20
2022-11-18T17:26:22.967Z,10.23
2022-11-18T17:28:52.234Z,10.00
2022-11-18T17:43:57.071Z,9.87
2022-11-18T17:46:24.868Z,9.13
2022-11-18T17:48:55.310Z,9.47
2022-11-18T17:51:23.287Z,9.13
2022-11-18T17:53:51.135Z,8.17
2022-11-18T17:56:19.321Z,9.00
2022-11-18T17:58:47.222Z,9.00
2022-11-18T18:01:17.013Z,9.03
2022-11-18T18:03:44.879Z,8.87
2022-11-18T18:06:13.096Z,9.10
2022-11-18T18:08:41.017Z,8.30
2022-11-18T18:11:11.481Z,8.53
2022-11-18T18:13:56.690Z,8.23
2022-11-18T18:16:26.413Z,8.50
2022-11-18T18:18:54.328Z,8.17
2022-11-18T18:21:22.305Z,8.40
2022-11-18T18:23:50.622Z,8.10
2022-11-18T18:26:18.875Z,7.80
2022-11-18T18:28:46.851Z,9.73
2022-11-18T18:31:15.765Z,8.00
2022-11-18T18:33:45.158Z,8.17
2022-11-18T18:36:14.537Z,8.50
2022-11-18T18:38:42.546Z,8.33
2022-11-18T18:41:12.160Z,7.40
2022-11-18T18:43:40.055Z,8.00
2022-11-18T18:46:26.459Z,8.50
2022-11-18T18:48:56.376Z,7.37
2022-11-18T18:51:24.342Z,7.80
2022-11-18T18:53:52.316Z,7.90
2022-11-18T18:56:20.230Z,7.40
2022-11-18T18:58:48.216Z,8.57
2022-11-18T19:01:17.541Z,7.73
2022-11-18T19:03:45.629Z,7.73
2022-11-18T19:09:13.228Z,7.90
2022-11-18T19:12:03.987Z,7.60
2022-11-18T19:14:32.594Z,7.27
2022-11-18T19:17:04.819Z,7.40
2022-11-18T19:19:52.324Z,8.00
2022-11-18T19:22:21.803Z,7.33
2022-11-18T19:24:51.117Z,7.60
2022-11-18T19:27:19.361Z,7.20
2022-11-18T19:29:47.236Z,7.30
2022-11-18T19:32:15.224Z,7.43
2022-11-18T19:34:43.492Z,7.50
2022-11-18T19:37:11.287Z,7.23
2022-11-18T19:39:40.606Z,7.43
2022-11-18T19:42:10.554Z,6.87
2022-11-18T19:44:38.606Z,7.27
2022-11-18T19:47:06.480Z,7.07
2022-11-18T19:49:34.516Z,7.47
2022-11-18T19:52:02.345Z,7.40
2022-11-18T19:54:30.143Z,6.80
2022-11-18T19:57:00.293Z,7.03
2022-11-18T19:59:28.445Z,7.47
2022-11-18T20:01:56.555Z,6.70
2022-11-18T20:04:24.483Z,6.80
2022-11-18T20:06:52.851Z,6.67
2022-11-18T20:09:20.852Z,6.90
2022-11-18T20:11:49.532Z,6.70
2022-11-18T20:14:18.722Z,6.83
2022-11-18T20:16:46.567Z,7.20
2022-11-18T20:19:17.043Z,6.60
2022-11-18T20:21:45.017Z,6.50
2022-11-18T20:24:15.859Z,6.67
2022-11-18T20:26:43.939Z,6.67
2022-11-18T20:29:12.026Z,6.40
2022-11-18T20:31:41.553Z,6.67
2022-11-18T20:34:12.445Z,7.03
2022-11-18T20:36:40.362Z,7.20
2022-11-18T20:39:09.087Z,6.60
2022-11-18T20:41:37.158Z,6.40
2022-11-18T20:44:05.477Z,6.17
2022-11-18T20:46:34.434Z,6.70
2022-11-18T20:49:03.782Z,6.40
2022-11-18T20:51:31.745Z,6.40
2022-11-18T20:54:00.166Z,6.37
2022-11-18T20:56:28.530Z,6.17
2022-11-18T20:58:57.256Z,6.17
2022-11-18T21:01:26.348Z,6.07
2022-11-18T21:03:55.190Z,6.00
2022-11-18T21:06:25.325Z,6.10
2022-11-18T21:08:55.609Z,6.70
2022-11-18T21:11:23.420Z,5.40
2022-11-18T21:14:09.039Z,6.93
2022-11-18T21:16:37.429Z,6.20
2022-11-18T21:19:05.279Z,6.43
2022-11-18T21:21:48.864Z,6.00
2022-11-18T21:24:17.469Z,6.37
2022-11-18T21:26:45.977Z,5.83
2022-11-18T21:29:14.552Z,6.07
2022-11-18T21:31:42.655Z,5.87
2022-11-18T21:34:10.633Z,5.93
2022-11-18T21:36:44.996Z,6.23
2022-11-18T21:39:13.471Z,5.87
2022-11-18T21:41:41.516Z,6.30
2022-11-18T21:44:09.928Z,6.30
2022-11-18T21:46:38.423Z,6.40
2022-11-18T21:49:06.309Z,6.80
2022-11-18T21:51:34.355Z,5.80
2022-11-18T21:54:04.185Z,5.90
2022-11-18T21:56:32.000Z,6.30
2022-11-18T21:59:00.651Z,6.53
2022-11-18T22:01:29.397Z,6.00
2022-11-18T22:03:57.738Z,6.37
2022-11-18T22:06:26.159Z,6.60
2022-11-18T22:08:54.112Z,6.50
2022-11-18T22:11:24.209Z,6.10
2022-11-18T22:13:53.092Z,6.60
2022-11-18T22:16:22.198Z,6.57
2022-11-18T22:18:56.023Z,6.30
2022-11-18T22:21:26.810Z,6.20
2022-11-18T22:23:57.771Z,5.90
2022-11-18T22:26:27.572Z,6.03
2022-11-18T22:28:56.136Z,5.90
2022-11-18T22:31:24.251Z,5.90
2022-11-18T22:33:52.349Z,6.57
2022-11-18T22:36:21.516Z,6.67
2022-11-18T22:38:49.511Z,6.27
2022-11-18T22:41:32.322Z,6.73
2022-11-18T22:44:06.946Z,5.70
2022-11-18T22:46:36.072Z,6.67
2022-11-18T22:49:04.198Z,6.70
2022-11-18T22:51:32.358Z,6.07
2022-11-18T22:54:30.648Z,6.20
2022-11-18T22:56:48.207Z,6.10
2022-11-18T22:59:17.856Z,6.73
2022-11-18T23:01:46.107Z,6.50
2022-11-18T23:04:13.997Z,6.40
2022-11-18T23:06:42.008Z,6.10
2022-11-18T23:09:10.466Z,6.63
2022-11-18T23:11:56.429Z,6.10
2022-11-18T23:14:25.497Z,6.30
2022-11-18T23:16:54.138Z,5.90
2022-11-18T23:19:22.387Z,6.17
2022-11-18T23:21:50.424Z,6.40
2022-11-18T23:24:19.062Z,6.20
2022-11-18T23:26:47.038Z,6.27
2022-11-18T23:29:15.166Z,6.40
2022-11-18T23:31:44.930Z,6.80
2022-11-18T23:34:13.223Z,6.40
2022-11-18T23:36:41.069Z,6.00
2022-11-18T23:39:09.251Z,6.60
2022-11-18T23:41:40.105Z,6.40
2022-11-18T23:44:10.836Z,6.07
2022-11-18T23:46:38.853Z,6.33
2022-11-18T23:49:10.550Z,6.10
2022-11-18T23:51:38.290Z,5.90
2022-11-18T23:54:06.136Z,6.60
2022-11-18T23:56:37.997Z,5.97
2022-11-18T23:59:06.495Z,6.77
